Terminal Aerodrome Forecast
Issued by NWS

Home | Current Version | Previous Version | Text Only | Print | Product List | Glossary On
Versions: 1 2 3 4 5 6 7 8 9 10 11 12 13 14 15 16 17 18 19
000
FTUS45 KFGZ 281720
TAFSEZ
TAF
KSEZ 281720Z 2818/2918 04010KT P6SM SCT060 BKN100
     FM282000 17010KT P6SM VCTS SCT060CB BKN090
     FM290000 16005KT P6SM SCT060 BKN100
     FM290200 06010KT P6SM SCT100=

USA.gov is the U.S. government's official web portal to all federal, state and local government web resources and services.